sensor_id;sensor_type;location;lat;lon;timestamp;P1;durP1;ratioP1;P2;durP2;ratioP2
26034;SDS011;13809;48.632;11.576;2023-02-28T00:02:07;2.87;;;2.53;;
26034;SDS011;13809;48.632;11.576;2023-02-28T00:07:11;3.07;;;2.53;;
26034;SDS011;13809;48.632;11.576;2023-02-28T00:12:15;3.13;;;2.57;;
26034;SDS011;13809;48.632;11.576;2023-02-28T00:17:18;2.90;;;2.70;;
26034;SDS011;13809;48.632;11.576;2023-02-28T00:22:22;2.73;;;2.43;;
26034;SDS011;13809;48.632;11.576;2023-02-28T00:27:26;2.97;;;2.70;;
26034;SDS011;13809;48.632;11.576;2023-02-28T00:32:30;2.80;;;2.50;;
26034;SDS011;13809;48.632;11.576;2023-02-28T00:37:33;2.93;;;2.47;;
26034;SDS011;13809;48.632;11.576;2023-02-28T00:42:38;2.80;;;2.60;;
26034;SDS011;13809;48.632;11.576;2023-02-28T00:47:41;2.97;;;2.77;;
26034;SDS011;13809;48.632;11.576;2023-02-28T00:52:44;2.57;;;2.37;;
26034;SDS011;13809;48.632;11.576;2023-02-28T00:57:52;3.30;;;2.60;;
26034;SDS011;13809;48.632;11.576;2023-02-28T01:02:55;3.00;;;2.80;;
26034;SDS011;13809;48.632;11.576;2023-02-28T01:07:58;3.10;;;2.80;;
26034;SDS011;13809;48.632;11.576;2023-02-28T01:13:02;3.00;;;2.70;;
26034;SDS011;13809;48.632;11.576;2023-02-28T01:18:05;2.80;;;2.60;;
26034;SDS011;13809;48.632;11.576;2023-02-28T01:23:08;2.87;;;2.50;;
26034;SDS011;13809;48.632;11.576;2023-02-28T01:28:13;2.67;;;2.40;;
26034;SDS011;13809;48.632;11.576;2023-02-28T01:33:16;3.07;;;2.70;;
26034;SDS011;13809;48.632;11.576;2023-02-28T01:38:19;5.27;;;2.80;;
26034;SDS011;13809;48.632;11.576;2023-02-28T01:43:26;2.97;;;2.73;;
26034;SDS011;13809;48.632;11.576;2023-02-28T01:48:31;2.80;;;2.60;;
26034;SDS011;13809;48.632;11.576;2023-02-28T01:53:37;3.40;;;3.10;;
26034;SDS011;13809;48.632;11.576;2023-02-28T01:58:46;2.87;;;2.57;;
26034;SDS011;13809;48.632;11.576;2023-02-28T02:03:50;3.20;;;2.90;;
26034;SDS011;13809;48.632;11.576;2023-02-28T02:08:57;2.87;;;2.60;;
26034;SDS011;13809;48.632;11.576;2023-02-28T02:14:12;3.13;;;2.73;;
26034;SDS011;13809;48.632;11.576;2023-02-28T02:19:36;2.67;;;2.47;;
26034;SDS011;13809;48.632;11.576;2023-02-28T02:30:27;3.87;;;2.90;;
26034;SDS011;13809;48.632;11.576;2023-02-28T02:35:53;3.30;;;2.43;;
26034;SDS011;13809;48.632;11.576;2023-02-28T02:41:00;3.07;;;2.77;;
26034;SDS011;13809;48.632;11.576;2023-02-28T02:46:12;3.00;;;2.73;;
26034;SDS011;13809;48.632;11.576;2023-02-28T02:51:21;2.47;;;2.27;;
26034;SDS011;13809;48.632;11.576;2023-02-28T02:56:27;2.77;;;2.57;;
26034;SDS011;13809;48.632;11.576;2023-02-28T03:01:33;2.90;;;2.47;;
26034;SDS011;13809;48.632;11.576;2023-02-28T03:06:40;3.00;;;2.70;;
26034;SDS011;13809;48.632;11.576;2023-02-28T03:11:43;2.43;;;2.23;;
26034;SDS011;13809;48.632;11.576;2023-02-28T03:16:49;2.80;;;2.60;;
26034;SDS011;13809;48.632;11.576;2023-02-28T03:22:07;2.60;;;2.40;;
26034;SDS011;13809;48.632;11.576;2023-02-28T03:27:21;2.70;;;2.50;;
26034;SDS011;13809;48.632;11.576;2023-02-28T03:32:28;2.50;;;2.30;;
26034;SDS011;13809;48.632;11.576;2023-02-28T03:37:37;3.00;;;2.70;;
26034;SDS011;13809;48.632;11.576;2023-02-28T03:42:44;3.00;;;2.70;;
26034;SDS011;13809;48.632;11.576;2023-02-28T03:47:51;2.83;;;2.50;;
26034;SDS011;13809;48.632;11.576;2023-02-28T03:52:58;3.10;;;2.80;;
26034;SDS011;13809;48.632;11.576;2023-02-28T03:58:07;3.97;;;3.03;;
26034;SDS011;13809;48.632;11.576;2023-02-28T04:03:16;3.23;;;2.93;;
26034;SDS011;13809;48.632;11.576;2023-02-28T04:08:21;2.90;;;2.67;;
26034;SDS011;13809;48.632;11.576;2023-02-28T04:13:25;4.30;;;2.70;;
26034;SDS011;13809;48.632;11.576;2023-02-28T04:18:28;3.77;;;3.20;;
26034;SDS011;13809;48.632;11.576;2023-02-28T04:23:32;3.77;;;3.37;;
26034;SDS011;13809;48.632;11.576;2023-02-28T04:28:36;3.77;;;3.23;;
26034;SDS011;13809;48.632;11.576;2023-02-28T04:33:40;3.20;;;2.93;;
26034;SDS011;13809;48.632;11.576;2023-02-28T04:38:45;3.50;;;3.20;;
26034;SDS011;13809;48.632;11.576;2023-02-28T04:43:49;3.77;;;3.03;;
26034;SDS011;13809;48.632;11.576;2023-02-28T04:48:53;3.87;;;3.50;;
26034;SDS011;13809;48.632;11.576;2023-02-28T04:54:00;3.87;;;3.33;;
26034;SDS011;13809;48.632;11.576;2023-02-28T04:59:03;3.47;;;3.20;;
26034;SDS011;13809;48.632;11.576;2023-02-28T05:04:08;3.53;;;3.23;;
26034;SDS011;13809;48.632;11.576;2023-02-28T05:09:13;4.17;;;3.77;;
26034;SDS011;13809;48.632;11.576;2023-02-28T05:14:16;4.80;;;3.63;;
26034;SDS011;13809;48.632;11.576;2023-02-28T05:19:19;3.47;;;3.17;;
26034;SDS011;13809;48.632;11.576;2023-02-28T05:24:23;4.10;;;3.70;;
26034;SDS011;13809;48.632;11.576;2023-02-28T05:29:27;3.70;;;3.40;;
26034;SDS011;13809;48.632;11.576;2023-02-28T05:34:30;3.60;;;3.30;;
26034;SDS011;13809;48.632;11.576;2023-02-28T05:39:35;5.07;;;3.57;;
26034;SDS011;13809;48.632;11.576;2023-02-28T05:44:38;3.77;;;3.40;;
26034;SDS011;13809;48.632;11.576;2023-02-28T05:49:41;3.97;;;3.57;;
26034;SDS011;13809;48.632;11.576;2023-02-28T05:54:47;4.53;;;3.83;;
26034;SDS011;13809;48.632;11.576;2023-02-28T05:59:50;3.70;;;3.40;;
26034;SDS011;13809;48.632;11.576;2023-02-28T06:04:53;4.03;;;3.73;;
26034;SDS011;13809;48.632;11.576;2023-02-28T06:09:57;3.97;;;3.67;;
26034;SDS011;13809;48.632;11.576;2023-02-28T06:15:01;4.07;;;3.67;;
26034;SDS011;13809;48.632;11.576;2023-02-28T06:20:04;4.20;;;3.80;;
26034;SDS011;13809;48.632;11.576;2023-02-28T06:25:10;5.33;;;3.53;;
26034;SDS011;13809;48.632;11.576;2023-02-28T06:30:13;4.67;;;3.70;;
26034;SDS011;13809;48.632;11.576;2023-02-28T06:35:17;4.23;;;3.83;;
26034;SDS011;13809;48.632;11.576;2023-02-28T06:40:21;4.27;;;3.83;;
26034;SDS011;13809;48.632;11.576;2023-02-28T06:45:27;4.10;;;3.70;;
26034;SDS011;13809;48.632;11.576;2023-02-28T06:50:31;4.30;;;3.90;;
26034;SDS011;13809;48.632;11.576;2023-02-28T06:55:35;5.10;;;4.60;;
26034;SDS011;13809;48.632;11.576;2023-02-28T07:00:40;5.53;;;4.53;;
26034;SDS011;13809;48.632;11.576;2023-02-28T07:05:43;4.90;;;4.50;;
26034;SDS011;13809;48.632;11.576;2023-02-28T07:10:48;4.80;;;4.33;;
26034;SDS011;13809;48.632;11.576;2023-02-28T07:15:54;4.97;;;4.43;;
26034;SDS011;13809;48.632;11.576;2023-02-28T07:20:58;5.70;;;4.97;;
26034;SDS011;13809;48.632;11.576;2023-02-28T07:26:05;5.30;;;4.80;;
26034;SDS011;13809;48.632;11.576;2023-02-28T07:31:08;5.60;;;5.10;;
26034;SDS011;13809;48.632;11.576;2023-02-28T07:36:13;5.57;;;5.07;;
26034;SDS011;13809;48.632;11.576;2023-02-28T07:41:20;6.30;;;5.67;;
26034;SDS011;13809;48.632;11.576;2023-02-28T07:46:26;6.23;;;5.63;;
26034;SDS011;13809;48.632;11.576;2023-02-28T07:51:31;6.03;;;5.47;;
26034;SDS011;13809;48.632;11.576;2023-02-28T07:56:36;5.87;;;5.37;;
26034;SDS011;13809;48.632;11.576;2023-02-28T08:01:39;5.77;;;5.07;;
26034;SDS011;13809;48.632;11.576;2023-02-28T08:06:42;5.93;;;5.33;;
26034;SDS011;13809;48.632;11.576;2023-02-28T08:11:47;6.43;;;5.83;;
26034;SDS011;13809;48.632;11.576;2023-02-28T08:16:50;6.03;;;5.53;;
26034;SDS011;13809;48.632;11.576;2023-02-28T08:21:53;6.20;;;5.60;;
26034;SDS011;13809;48.632;11.576;2023-02-28T08:26:58;6.70;;;6.10;;
26034;SDS011;13809;48.632;11.576;2023-02-28T08:32:01;6.10;;;5.33;;
26034;SDS011;13809;48.632;11.576;2023-02-28T08:37:04;7.13;;;6.20;;
26034;SDS011;13809;48.632;11.576;2023-02-28T08:42:08;6.40;;;5.80;;
26034;SDS011;13809;48.632;11.576;2023-02-28T08:47:12;5.90;;;5.37;;
26034;SDS011;13809;48.632;11.576;2023-02-28T08:52:15;7.37;;;6.30;;
26034;SDS011;13809;48.632;11.576;2023-02-28T08:57:19;7.00;;;6.30;;
26034;SDS011;13809;48.632;11.576;2023-02-28T09:02:22;6.70;;;5.97;;
26034;SDS011;13809;48.632;11.576;2023-02-28T09:07:25;6.70;;;6.00;;
26034;SDS011;13809;48.632;11.576;2023-02-28T09:12:31;7.00;;;6.30;;
26034;SDS011;13809;48.632;11.576;2023-02-28T09:17:36;6.40;;;5.80;;
26034;SDS011;13809;48.632;11.576;2023-02-28T09:22:39;6.90;;;6.20;;
26034;SDS011;13809;48.632;11.576;2023-02-28T09:27:43;7.47;;;6.17;;
26034;SDS011;13809;48.632;11.576;2023-02-28T09:32:47;6.67;;;6.07;;
26034;SDS011;13809;48.632;11.576;2023-02-28T09:37:53;6.60;;;6.00;;
26034;SDS011;13809;48.632;11.576;2023-02-28T09:42:58;6.73;;;6.13;;
26034;SDS011;13809;48.632;11.576;2023-02-28T09:48:03;7.50;;;6.80;;
26034;SDS011;13809;48.632;11.576;2023-02-28T09:53:13;6.87;;;6.13;;
26034;SDS011;13809;48.632;11.576;2023-02-28T09:58:26;6.90;;;6.30;;
26034;SDS011;13809;48.632;11.576;2023-02-28T10:03:35;6.30;;;5.70;;
26034;SDS011;13809;48.632;11.576;2023-02-28T10:08:42;6.43;;;5.83;;
26034;SDS011;13809;48.632;11.576;2023-02-28T10:13:56;6.80;;;6.20;;
26034;SDS011;13809;48.632;11.576;2023-02-28T10:19:03;7.30;;;6.60;;
26034;SDS011;13809;48.632;11.576;2023-02-28T10:24:14;6.40;;;5.80;;
26034;SDS011;13809;48.632;11.576;2023-02-28T10:29:24;7.17;;;5.87;;
26034;SDS011;13809;48.632;11.576;2023-02-28T10:34:27;6.90;;;6.30;;
26034;SDS011;13809;48.632;11.576;2023-02-28T10:39:34;6.87;;;6.27;;
26034;SDS011;13809;48.632;11.576;2023-02-28T10:44:41;6.83;;;6.23;;
26034;SDS011;13809;48.632;11.576;2023-02-28T10:49:47;7.33;;;6.63;;
26034;SDS011;13809;48.632;11.576;2023-02-28T10:54:51;7.23;;;6.47;;
26034;SDS011;13809;48.632;11.576;2023-02-28T11:00:24;7.10;;;6.47;;
26034;SDS011;13809;48.632;11.576;2023-02-28T11:05:34;7.03;;;6.43;;
26034;SDS011;13809;48.632;11.576;2023-02-28T11:10:38;7.17;;;6.47;;
26034;SDS011;13809;48.632;11.576;2023-02-28T11:15:45;7.50;;;6.43;;
26034;SDS011;13809;48.632;11.576;2023-02-28T11:20:54;7.30;;;6.60;;
26034;SDS011;13809;48.632;11.576;2023-02-28T11:26:00;7.30;;;6.67;;
26034;SDS011;13809;48.632;11.576;2023-02-28T11:31:15;6.93;;;6.27;;
26034;SDS011;13809;48.632;11.576;2023-02-28T11:36:22;6.97;;;6.27;;
26034;SDS011;13809;48.632;11.576;2023-02-28T11:41:36;7.10;;;6.47;;
26034;SDS011;13809;48.632;11.576;2023-02-28T11:46:58;7.50;;;6.80;;
26034;SDS011;13809;48.632;11.576;2023-02-28T11:52:06;7.53;;;6.67;;
26034;SDS011;13809;48.632;11.576;2023-02-28T11:57:28;7.17;;;6.50;;
26034;SDS011;13809;48.632;11.576;2023-02-28T12:02:44;7.63;;;6.93;;
26034;SDS011;13809;48.632;11.576;2023-02-28T12:08:02;7.13;;;6.47;;
26034;SDS011;13809;48.632;11.576;2023-02-28T12:13:16;7.13;;;6.53;;
26034;SDS011;13809;48.632;11.576;2023-02-28T12:18:45;6.90;;;6.20;;
26034;SDS011;13809;48.632;11.576;2023-02-28T12:24:06;7.20;;;6.50;;
26034;SDS011;13809;48.632;11.576;2023-02-28T12:29:28;6.97;;;6.37;;
26034;SDS011;13809;48.632;11.576;2023-02-28T12:34:35;9.37;;;7.80;;
26034;SDS011;13809;48.632;11.576;2023-02-28T12:39:41;6.90;;;6.20;;
26034;SDS011;13809;48.632;11.576;2023-02-28T12:44:52;8.87;;;8.07;;
26034;SDS011;13809;48.632;11.576;2023-02-28T12:50:02;7.47;;;6.27;;
26034;SDS011;13809;48.632;11.576;2023-02-28T12:55:08;6.73;;;6.13;;
26034;SDS011;13809;48.632;11.576;2023-02-28T13:00:18;6.90;;;6.27;;
26034;SDS011;13809;48.632;11.576;2023-02-28T13:11:16;7.40;;;6.27;;
26034;SDS011;13809;48.632;11.576;2023-02-28T13:16:27;8.17;;;6.80;;
26034;SDS011;13809;48.632;11.576;2023-02-28T13:21:33;7.00;;;6.30;;
26034;SDS011;13809;48.632;11.576;2023-02-28T13:32:33;7.57;;;6.10;;
26034;SDS011;13809;48.632;11.576;2023-02-28T13:37:41;7.17;;;6.33;;
26034;SDS011;13809;48.632;11.576;2023-02-28T13:42:49;6.90;;;6.30;;
26034;SDS011;13809;48.632;11.576;2023-02-28T13:47:56;7.50;;;6.80;;
26034;SDS011;13809;48.632;11.576;2023-02-28T13:58:53;7.63;;;6.90;;
26034;SDS011;13809;48.632;11.576;2023-02-28T14:04:02;7.40;;;6.80;;
26034;SDS011;13809;48.632;11.576;2023-02-28T14:09:19;6.80;;;6.20;;
26034;SDS011;13809;48.632;11.576;2023-02-28T14:19:59;6.23;;;5.70;;
26034;SDS011;13809;48.632;11.576;2023-02-28T14:25:13;6.80;;;6.20;;
26034;SDS011;13809;48.632;11.576;2023-02-28T14:36:12;7.63;;;6.93;;
26034;SDS011;13809;48.632;11.576;2023-02-28T14:41:21;7.17;;;6.47;;
26034;SDS011;13809;48.632;11.576;2023-02-28T14:46:26;7.57;;;6.87;;
26034;SDS011;13809;48.632;11.576;2023-02-28T14:51:38;7.37;;;6.67;;
26034;SDS011;13809;48.632;11.576;2023-02-28T14:56:41;8.13;;;7.23;;
26034;SDS011;13809;48.632;11.576;2023-02-28T15:01:45;7.30;;;6.63;;
26034;SDS011;13809;48.632;11.576;2023-02-28T15:12:12;7.00;;;6.27;;
26034;SDS011;13809;48.632;11.576;2023-02-28T15:17:19;8.47;;;7.53;;
26034;SDS011;13809;48.632;11.576;2023-02-28T15:22:29;7.57;;;6.77;;
26034;SDS011;13809;48.632;11.576;2023-02-28T15:27:39;7.30;;;6.70;;
26034;SDS011;13809;48.632;11.576;2023-02-28T15:33:01;7.60;;;6.80;;
26034;SDS011;13809;48.632;11.576;2023-02-28T15:38:14;7.60;;;6.87;;
26034;SDS011;13809;48.632;11.576;2023-02-28T15:43:23;7.10;;;6.50;;
26034;SDS011;13809;48.632;11.576;2023-02-28T15:48:29;7.17;;;6.57;;
26034;SDS011;13809;48.632;11.576;2023-02-28T15:53:37;7.50;;;6.80;;
26034;SDS011;13809;48.632;11.576;2023-02-28T15:58:43;7.20;;;6.40;;
26034;SDS011;13809;48.632;11.576;2023-02-28T16:03:47;7.17;;;6.47;;
26034;SDS011;13809;48.632;11.576;2023-02-28T16:08:53;7.80;;;7.03;;
26034;SDS011;13809;48.632;11.576;2023-02-28T16:13:56;7.73;;;7.03;;
26034;SDS011;13809;48.632;11.576;2023-02-28T16:19:00;7.70;;;6.90;;
26034;SDS011;13809;48.632;11.576;2023-02-28T16:24:04;8.00;;;7.03;;
26034;SDS011;13809;48.632;11.576;2023-02-28T16:29:08;7.10;;;6.50;;
26034;SDS011;13809;48.632;11.576;2023-02-28T16:34:15;9.03;;;7.33;;
26034;SDS011;13809;48.632;11.576;2023-02-28T16:39:20;9.37;;;7.80;;
26034;SDS011;13809;48.632;11.576;2023-02-28T16:44:25;9.50;;;7.40;;
26034;SDS011;13809;48.632;11.576;2023-02-28T16:49:30;8.13;;;7.13;;
26034;SDS011;13809;48.632;11.576;2023-02-28T16:54:35;7.37;;;6.67;;
26034;SDS011;13809;48.632;11.576;2023-02-28T16:59:38;7.87;;;7.17;;
26034;SDS011;13809;48.632;11.576;2023-02-28T17:04:41;7.87;;;7.10;;
26034;SDS011;13809;48.632;11.576;2023-02-28T17:09:46;6.87;;;6.27;;
26034;SDS011;13809;48.632;11.576;2023-02-28T17:14:49;7.03;;;6.33;;
26034;SDS011;13809;48.632;11.576;2023-02-28T17:19:52;7.57;;;6.87;;
26034;SDS011;13809;48.632;11.576;2023-02-28T17:24:56;7.97;;;6.40;;
26034;SDS011;13809;48.632;11.576;2023-02-28T17:30:00;7.97;;;7.13;;
26034;SDS011;13809;48.632;11.576;2023-02-28T17:35:04;10.43;;;9.20;;
26034;SDS011;13809;48.632;11.576;2023-02-28T17:40:13;7.97;;;7.17;;
26034;SDS011;13809;48.632;11.576;2023-02-28T17:45:18;7.60;;;6.93;;
26034;SDS011;13809;48.632;11.576;2023-02-28T17:50:21;8.90;;;7.23;;
26034;SDS011;13809;48.632;11.576;2023-02-28T17:55:26;8.80;;;7.13;;
26034;SDS011;13809;48.632;11.576;2023-02-28T18:00:29;12.30;;;7.23;;
26034;SDS011;13809;48.632;11.576;2023-02-28T18:05:34;7.87;;;7.17;;
26034;SDS011;13809;48.632;11.576;2023-02-28T18:10:39;7.77;;;6.97;;
26034;SDS011;13809;48.632;11.576;2023-02-28T18:15:43;8.60;;;7.60;;
26034;SDS011;13809;48.632;11.576;2023-02-28T18:20:46;8.53;;;7.17;;
26034;SDS011;13809;48.632;11.576;2023-02-28T18:25:52;7.70;;;7.00;;
26034;SDS011;13809;48.632;11.576;2023-02-28T18:30:55;8.00;;;7.20;;
26034;SDS011;13809;48.632;11.576;2023-02-28T18:35:58;7.77;;;6.97;;
26034;SDS011;13809;48.632;11.576;2023-02-28T18:41:04;7.73;;;6.90;;
26034;SDS011;13809;48.632;11.576;2023-02-28T18:46:09;8.17;;;7.10;;
26034;SDS011;13809;48.632;11.576;2023-02-28T18:51:15;8.47;;;7.67;;
26034;SDS011;13809;48.632;11.576;2023-02-28T18:56:22;8.13;;;7.33;;
26034;SDS011;13809;48.632;11.576;2023-02-28T19:01:26;8.17;;;7.37;;
26034;SDS011;13809;48.632;11.576;2023-02-28T19:06:32;9.60;;;7.80;;
26034;SDS011;13809;48.632;11.576;2023-02-28T19:11:39;8.70;;;7.80;;
26034;SDS011;13809;48.632;11.576;2023-02-28T19:16:42;8.53;;;7.73;;
26034;SDS011;13809;48.632;11.576;2023-02-28T19:21:47;9.20;;;8.30;;
26034;SDS011;13809;48.632;11.576;2023-02-28T19:26:52;8.57;;;7.77;;
26034;SDS011;13809;48.632;11.576;2023-02-28T19:31:55;9.80;;;8.80;;
26034;SDS011;13809;48.632;11.576;2023-02-28T19:36:58;9.53;;;8.53;;
26034;SDS011;13809;48.632;11.576;2023-02-28T19:42:02;9.00;;;8.20;;
26034;SDS011;13809;48.632;11.576;2023-02-28T19:47:06;9.87;;;8.87;;
26034;SDS011;13809;48.632;11.576;2023-02-28T19:52:09;9.77;;;8.80;;
26034;SDS011;13809;48.632;11.576;2023-02-28T19:57:17;10.00;;;9.00;;
26034;SDS011;13809;48.632;11.576;2023-02-28T20:02:20;10.23;;;9.23;;
26034;SDS011;13809;48.632;11.576;2023-02-28T20:07:24;9.80;;;8.80;;
26034;SDS011;13809;48.632;11.576;2023-02-28T20:12:28;9.93;;;8.97;;
26034;SDS011;13809;48.632;11.576;2023-02-28T20:17:32;10.30;;;9.13;;
26034;SDS011;13809;48.632;11.576;2023-02-28T20:22:35;10.43;;;9.33;;
26034;SDS011;13809;48.632;11.576;2023-02-28T20:27:40;9.47;;;8.60;;
26034;SDS011;13809;48.632;11.576;2023-02-28T20:32:43;10.37;;;9.37;;
26034;SDS011;13809;48.632;11.576;2023-02-28T20:37:46;10.30;;;9.07;;
26034;SDS011;13809;48.632;11.576;2023-02-28T20:42:51;10.87;;;9.80;;
26034;SDS011;13809;48.632;11.576;2023-02-28T20:47:54;10.73;;;9.70;;
26034;SDS011;13809;48.632;11.576;2023-02-28T20:52:57;10.40;;;9.27;;
26034;SDS011;13809;48.632;11.576;2023-02-28T20:58:01;11.13;;;9.97;;
26034;SDS011;13809;48.632;11.576;2023-02-28T21:03:04;10.03;;;9.07;;
26034;SDS011;13809;48.632;11.576;2023-02-28T21:08:08;11.57;;;9.50;;
26034;SDS011;13809;48.632;11.576;2023-02-28T21:13:12;10.57;;;9.57;;
26034;SDS011;13809;48.632;11.576;2023-02-28T21:18:15;10.50;;;9.40;;
26034;SDS011;13809;48.632;11.576;2023-02-28T21:23:18;10.67;;;9.60;;
26034;SDS011;13809;48.632;11.576;2023-02-28T21:28:23;12.80;;;10.27;;
26034;SDS011;13809;48.632;11.576;2023-02-28T21:33:26;10.37;;;9.37;;
26034;SDS011;13809;48.632;11.576;2023-02-28T21:38:30;10.73;;;9.53;;
26034;SDS011;13809;48.632;11.576;2023-02-28T21:43:35;10.50;;;9.37;;
26034;SDS011;13809;48.632;11.576;2023-02-28T21:48:39;10.80;;;9.50;;
26034;SDS011;13809;48.632;11.576;2023-02-28T21:53:43;11.80;;;10.60;;
26034;SDS011;13809;48.632;11.576;2023-02-28T21:58:48;12.00;;;10.90;;
26034;SDS011;13809;48.632;11.576;2023-02-28T22:03:51;11.97;;;10.30;;
26034;SDS011;13809;48.632;11.576;2023-02-28T22:08:55;11.50;;;10.37;;
26034;SDS011;13809;48.632;11.576;2023-02-28T22:14:00;12.50;;;11.30;;
26034;SDS011;13809;48.632;11.576;2023-02-28T22:19:04;12.37;;;11.17;;
26034;SDS011;13809;48.632;11.576;2023-02-28T22:24:08;12.87;;;11.57;;
26034;SDS011;13809;48.632;11.576;2023-02-28T22:29:13;12.77;;;11.57;;
26034;SDS011;13809;48.632;11.576;2023-02-28T22:34:16;11.90;;;10.73;;
26034;SDS011;13809;48.632;11.576;2023-02-28T22:39:20;12.40;;;11.30;;
26034;SDS011;13809;48.632;11.576;2023-02-28T22:44:24;12.50;;;11.30;;
26034;SDS011;13809;48.632;11.576;2023-02-28T22:49:27;13.03;;;11.63;;
26034;SDS011;13809;48.632;11.576;2023-02-28T22:54:30;12.43;;;11.23;;
26034;SDS011;13809;48.632;11.576;2023-02-28T22:59:35;13.27;;;11.97;;
26034;SDS011;13809;48.632;11.576;2023-02-28T23:04:38;13.37;;;12.07;;
26034;SDS011;13809;48.632;11.576;2023-02-28T23:09:41;13.03;;;11.53;;
26034;SDS011;13809;48.632;11.576;2023-02-28T23:14:46;11.83;;;10.73;;
26034;SDS011;13809;48.632;11.576;2023-02-28T23:19:49;12.40;;;11.20;;
26034;SDS011;13809;48.632;11.576;2023-02-28T23:24:52;11.57;;;10.47;;
26034;SDS011;13809;48.632;11.576;2023-02-28T23:29:57;11.67;;;10.57;;
26034;SDS011;13809;48.632;11.576;2023-02-28T23:35:00;12.57;;;11.13;;
26034;SDS011;13809;48.632;11.576;2023-02-28T23:40:04;12.10;;;10.90;;
26034;SDS011;13809;48.632;11.576;2023-02-28T23:45:10;11.73;;;10.53;;
26034;SDS011;13809;48.632;11.576;2023-02-28T23:50:13;13.20;;;11.90;;
26034;SDS011;13809;48.632;11.576;2023-02-28T23:55:17;12.30;;;11.10;;
